^^
Datos históricos de la estación: Murcia-Puente Tocinos
Diario Informe para Agosto 21, 2019 Unidades:  Ingés    Métrico   Ambas
Diario Semanal Mensual Anual
  Máxima: Mínima: Promedio:
Temperatura: 82.6 °F 72 °F 76.8 °F
Punto de rocio: 71.1 °F 65.1 °F 68.2 °F
Humedad: 92% 56% 76%
Velocidad viento: 7.6mph 0mph 3.2mph
Racha viento: 13.5mph - -
Viento- - SSO
Presión: 29.9 in 29.8 in -
Precipitación: 0 in    
 
 
Tabla de datos para Agosto 21, 2019
Hora Temperatura Punto de rocio Presión Viento Velocidad viento Racha viento Humedad Intensidad lluvia(por hora) Nubes
00:04 73.2 °F 70.3 °F 29.9 in NNO 2.4 mph 5 mph 91% 0 in
00:09 73.2 °F 70.3 °F 29.9 in NO 2.5 mph 5 mph 91% 0 in
00:14 73.2 °F 70.3 °F 29.9 in NO 2.9 mph 5 mph 91% 0 in
00:19 73.2 °F 70.3 °F 29.9 in NO 2.6 mph 1.2 mph 91% 0 in
00:24 73.2 °F 70.3 °F 29.9 in NO 1.4 mph 4.6 mph 91% 0 in
00:29 73.2 °F 70.3 °F 29.9 in NO 1.6 mph 5 mph 91% 0 in
00:34 73.2 °F 70.3 °F 29.9 in NO 2.4 mph 5 mph 91% 0 in
00:39 73.2 °F 70.3 °F 29.9 in ONO 2.3 mph 4.6 mph 91% 0 in
00:44 73.2 °F 70.3 °F 29.9 in Oeste 1.8 mph 5 mph 91% 0 in
00:49 73.2 °F 70.3 °F 29.9 in Oeste 2.1 mph 5 mph 91% 0 in
00:54 73.2 °F 70.3 °F 29.9 in Oeste 2.9 mph 5 mph 91% 0 in
00:59 73.4 °F 70.5 °F 29.9 in Oeste 2.7 mph 5 mph 91% 0 in
01:04 73.4 °F 70.5 °F 29.9 in Oeste 2 mph 5 mph 91% 0 in
01:09 73.4 °F 70.7 °F 29.9 in Oeste 2.1 mph 5.8 mph 91% 0 in
01:14 73.6 °F 70.9 °F 29.9 in OSO 2.4 mph 6 mph 91% 0 in
01:19 73.6 °F 70.9 °F 29.9 in OSO 2.4 mph 6 mph 91% 0 in
01:24 73.6 °F 70.7 °F 29.9 in OSO 2.4 mph 3 mph 90.7% 0 in
01:29 73.8 °F 70.5 °F 29.9 in OSO 1.9 mph 2.9 mph 90% 0 in
01:34 73.8 °F 70.5 °F 29.9 in Calm   4.6 mph 90% 0 in
01:39 73.8 °F 70.5 °F 29.9 in Oeste 0.4 mph 5 mph 90% 0 in
01:44 73.8 °F 70.5 °F 29.9 in ONO 1.8 mph 4.7 mph 90% 0 in
01:49 73.8 °F 70.5 °F 29.9 in NNO 1.9 mph 5 mph 90% 0 in
01:54 73.8 °F 70.7 °F 29.9 in NNO 2.4 mph 5 mph 90.1% 0 in
01:59 73.8 °F 71.1 °F 29.9 in NNO 2.2 mph 5 mph 91% 0 in
02:04 73.8 °F 71.1 °F 29.9 in NNO 1.4 mph 3.1 mph 91% 0 in
02:09 73.8 °F 71.1 °F 29.9 in OSO 1.5 mph 4.7 mph 91% 0 in
02:14 73.8 °F 71.1 °F 29.9 in OSO 1.8 mph 5 mph 91% 0 in
02:19 73.8 °F 71.1 °F 29.9 in OSO 1.8 mph 5 mph 91% 0 in
02:24 73.8 °F 71.1 °F 29.9 in Oeste 1.8 mph 4.6 mph 91% 0 in
02:29 73.6 °F 70.9 °F 29.9 in Oeste 1.9 mph 5 mph 91% 0 in
02:34 73.6 °F 70.9 °F 29.9 in NO 2 mph 4.7 mph 91% 0 in
02:39 73.6 °F 70.9 °F 29.9 in NO 2.2 mph 5.4 mph 91% 0 in
02:44 73.4 °F 70.3 °F 29.9 in NNO 2.9 mph 6 mph 90% 0 in
02:49 73.2 °F 70.2 °F 29.9 in NNE 2.9 mph 6 mph 90% 0 in
02:54 73.2 °F 70.2 °F 29.9 in NNE 2.9 mph 5 mph 90% 0 in
02:59 73.2 °F 70.2 °F 29.9 in NNE 2.7 mph 5 mph 90% 0 in
03:04 73 °F 70 °F 29.9 in NE 2 mph 5.9 mph 90% 0 in
03:09 73 °F 70 °F 29.9 in NE 2.4 mph 6.9 mph 90% 0 in
03:14 73 °F 69.8 °F 29.9 in ENE 4 mph 7 mph 90% 0 in
03:19 72.9 °F 69.8 °F 29.9 in North 3.6 mph 6 mph 90% 0 in
03:24 72.9 °F 69.8 °F 29.9 in ONO 2 mph 3 mph 90% 0 in
03:29 72.9 °F 69.8 °F 29.9 in ONO 2 mph 3 mph 90% 0 in
03:34 72.9 °F 69.8 °F 29.9 in ONO 1.8 mph 3 mph 90% 0 in
03:39 72.9 °F 70 °F 29.9 in ONO 1.4 mph 2.3 mph 91% 0 in
03:44 72.7 °F 70 °F 29.9 in Calm   2 mph 91% 0 in
03:49 72.7 °F 70 °F 29.9 in Calm     91% 0 in
03:54 72.7 °F 70 °F 29.9 in Calm     91% 0 in
03:59 72.7 °F 70 °F 29.9 in Calm   2.9 mph 91% 0 in
04:04 72.7 °F 70 °F 29.9 in Calm   4.7 mph 91% 0 in
04:09 72.9 °F 70 °F 29.9 in Sur 0.6 mph 5 mph 91% 0 in
04:14 72.7 °F 70 °F 29.9 in SSE 2.9 mph 6.4 mph 91% 0 in
04:19 72.7 °F 70 °F 29.9 in SSE 3 mph 7 mph 91.2% 0 in
04:24 72.7 °F 70.2 °F 29.9 in SSE 3.6 mph 7 mph 92% 0 in
04:29 72.9 °F 70.3 °F 29.9 in SSE 3.3 mph 5 mph 92% 0 in
04:34 72.9 °F 70.3 °F 29.9 in Sur 1.8 mph 4 mph 92% 0 in
04:39 72.9 °F 70.3 °F 29.9 in NO 1.8 mph 5 mph 91.7% 0 in
04:44 72.7 °F 70 °F 29.9 in NNO 1.8 mph 5 mph 91% 0 in
04:49 72.5 °F 69.6 °F 29.9 in NO 1.9 mph 5 mph 91% 0 in
04:54 72.3 °F 69.4 °F 29.9 in Oeste 2.4 mph 5 mph 91% 0 in
04:59 72.1 °F 69.4 °F 29.9 in Oeste 2.3 mph 5 mph 91% 0 in
05:04 72.1 °F 69.4 °F 29.9 in ONO 2 mph 5.9 mph 91% 0 in
05:09 72.1 °F 69.4 °F 29.9 in ONO 2.1 mph 6 mph 91% 0 in
05:14 72.1 °F 69.4 °F 29.9 in ONO 2.4 mph 5 mph 91% 0 in
05:19 72.1 °F 69.4 °F 29.9 in Oeste 2.3 mph 4.6 mph 91% 0 in
05:24 72.1 °F 69.4 °F 29.9 in Oeste 2 mph 5.2 mph 91.1% 0 in
05:29 72.1 °F 69.4 °F 29.9 in NO 2.2 mph 5.2 mph 91% 0 in
05:34 72.1 °F 69.4 °F 29.9 in NO 2.9 mph 5 mph 91% 0 in
05:39 72.1 °F 69.4 °F 29.9 in NO 2.7 mph 5 mph 91% 0 in
05:44 72 °F 69.3 °F 29.9 in NO 2 mph 3 mph 91% 0 in
05:49 72 °F 69.3 °F 29.9 in NO 1.6 mph 2.3 mph 91% 0 in
05:54 72 °F 69.3 °F 29.9 in Calm     91% 0 in
05:59 72 °F 69.3 °F 29.9 in Calm   1.4 mph 91% 0 in
06:04 72 °F 69.3 °F 29.9 in Calm   1 mph 91% 0 in
06:09 72 °F 69.3 °F 29.9 in Calm     91% 0 in
06:14 72 °F 69.3 °F 29.9 in Calm     91% 0 in
06:19 72.1 °F 69.4 °F 29.9 in Calm   2.9 mph 91% 0 in
06:24 72.1 °F 69.4 °F 29.9 in Calm   4.6 mph 91% 0 in
06:29 72.1 °F 69.4 °F 29.9 in OSO 0.5 mph 5 mph 91% 0 in
06:34 72.1 °F 69.4 °F 29.9 in OSO 2.4 mph 5 mph 91% 0 in
06:39 72.1 °F 69.4 °F 29.9 in OSO 2.4 mph 5 mph 91% 0 in
06:44 72 °F 69.3 °F 29.9 in OSO 2.4 mph 5 mph 91% 0 in
06:49 72 °F 69.3 °F 29.9 in OSO 2.4 mph 5 mph 91% 0 in
06:54 72 °F 69.3 °F 29.9 in OSO 2.4 mph 4 mph 91% 0 in
06:59 72.1 °F 69.3 °F 29.9 in OSO 2.2 mph 3 mph 91% 0 in
07:04 72.1 °F 69.4 °F 29.9 in OSO 1.8 mph 3 mph 91% 0 in
07:09 72.1 °F 69.4 °F 29.9 in OSO 1.4 mph   91% 0 in
07:14 72.1 °F 69.3 °F 29.9 in Calm   3.1 mph 90.5% 0 in
07:19 72.3 °F 69.3 °F 29.9 in Oeste 0.2 mph 3.5 mph 90% 0 in
07:24 72.3 °F 69.3 °F 29.9 in Oeste 1.4 mph 3.5 mph 90% 0 in
07:29 72.3 °F 69.3 °F 29.9 in Oeste 1.5 mph 3 mph 90% 0 in
07:34 72.3 °F 69.3 °F 29.9 in Oeste 1.8 mph 3 mph 90% 0 in
07:39 72.3 °F 69.3 °F 29.9 in Oeste 1.7 mph 2.3 mph 90% 0 in
07:44 72.1 °F 69.1 °F 29.9 in Oeste 1.4 mph 1.4 mph 89.7% 0 in
07:49 72.1 °F 68.7 °F 29.9 in Oeste 1.1 mph 3.6 mph 89% 0 in
07:54 72 °F 68.7 °F 29.9 in Calm   4 mph 89.7% 0 in
07:59 72 °F 68.7 °F 29.9 in OSO 0.6 mph 4.6 mph 89.6% 0 in
08:04 72 °F 68.5 °F 29.9 in OSO 2.4 mph 5 mph 89% 0 in
08:09 72 °F 68.5 °F 29.9 in OSO 2.4 mph 5 mph 89% 0 in
08:14 72.1 °F 68.7 °F 29.9 in SO 2.4 mph 5 mph 89% 0 in
08:19 72.1 °F 68.7 °F 29.9 in Sur 2.3 mph 4 mph 89% 0 in
08:24 72.3 °F 68.7 °F 29.9 in Sur 2 mph 3.6 mph 88.6% 0 in
08:29 72.3 °F 68.7 °F 29.9 in SO 2 mph 4 mph 88.4% 0 in
08:34 72.3 °F 68.5 °F 29.9 in SSO 2 mph 5 mph 87.8% 0 in
08:39 72.3 °F 68.2 °F 29.9 in SSO 2.2 mph 5 mph 87% 0 in
08:44 72.5 °F 68.4 °F 29.9 in SSO 2.9 mph 5.8 mph 87% 0 in
08:49 72.7 °F 68.5 °F 29.9 in SSO 2.9 mph 6 mph 86.8% 0 in
08:54 72.7 °F 68.2 °F 29.9 in SO 3.1 mph 5 mph 86% 0 in
08:59 72.7 °F 68.2 °F 29.9 in SO 3.1 mph 6.9 mph 85.6% 0 in
09:04 72.9 °F 68.4 °F 29.9 in SSO 3.1 mph 7 mph 85.7% 0 in
09:09 72.9 °F 68.2 °F 29.9 in SSO 3.1 mph 6 mph 85.5% 0 in
09:14 73 °F 68.4 °F 29.9 in SSO 3.1 mph 6.2 mph 85.6% 0 in
09:19 73 °F 68.5 °F 29.9 in Sur 3.2 mph 6 mph 86% 0 in
09:24 73 °F 68.7 °F 29.9 in SSO 3.6 mph 6 mph 86% 0 in
09:29 73.2 °F 68.7 °F 29.9 in SSO 3.7 mph 6.2 mph 85.8% 0 in
09:34 73.2 °F 68.9 °F 29.9 in SSO 4 mph 6.9 mph 86% 0 in
09:39 73.6 °F 68.9 °F 29.9 in Sur 4 mph 8.1 mph 85.6% 0 in
09:44 73.6 °F 68.9 °F 29.9 in SSO 4.3 mph 8 mph 85% 0 in
09:49 73.8 °F 68.9 °F 29.9 in SSO 4.4 mph 8.1 mph 84.8% 0 in
09:54 73.9 °F 68.7 °F 29.9 in SSO 4.7 mph 9.2 mph 84% 0 in
09:59 73.9 °F 68.7 °F 29.9 in SO 4.8 mph 9.2 mph 83.8% 0 in
10:04 73.9 °F 68.9 °F 29.9 in SO 5.4 mph 9.2 mph 83.7% 0 in
10:09 74.1 °F 68.7 °F 29.9 in OSO 5.4 mph 8.1 mph 83.6% 0 in
10:14 74.3 °F 68.9 °F 29.9 in OSO 5.4 mph 8 mph 83.4% 0 in
10:19 74.5 °F 68.9 °F 29.9 in SO 5.2 mph 7 mph 82.6% 0 in
10:24 74.7 °F 68.9 °F 29.9 in SSO 4 mph 8.1 mph 81.8% 0 in
10:29 74.8 °F 68.7 °F 29.9 in SO 4.1 mph 8.1 mph 81% 0 in
10:34 75.2 °F 69.1 °F 29.9 in SO 4.3 mph 8.1 mph 81% 0 in
10:39 75.6 °F 69.1 °F 29.9 in SSO 4.3 mph 8.1 mph 80.3% 0 in
10:44 75.6 °F 69.1 °F 29.9 in SO 4.3 mph 7 mph 80% 0 in
10:49 75.7 °F 68.9 °F 29.9 in SSO 4.3 mph 7.4 mph 79.6% 0 in
10:54 75.7 °F 68.7 °F 29.9 in SSO 4.3 mph 8.1 mph 79% 0 in
10:59 75.7 °F 68.5 °F 29.9 in SSO 4.5 mph 8.1 mph 78.4% 0 in
11:04 75.9 °F 68.9 °F 29.9 in SSO 5.2 mph 8 mph 79% 0 in
11:09 76.5 °F 69.1 °F 29.9 in SO 4.8 mph 6.9 mph 78.1% 0 in
11:14 76.6 °F 68.7 °F 29.9 in SO 3.1 mph 8.1 mph 76.4% 0 in
11:19 76.5 °F 68.4 °F 29.9 in OSO 3.4 mph 8 mph 76% 0 in
11:24 76.6 °F 68 °F 29.9 in OSO 4.3 mph 6.9 mph 74.8% 0 in
11:29 76.6 °F 67.8 °F 29.9 in OSO 4.2 mph 7 mph 74.1% 0 in
11:34 77.2 °F 68.2 °F 29.9 in NO 3.6 mph 6 mph 74% 0 in
11:39 77.7 °F 68.4 °F 29.9 in Oeste 3.4 mph 5.9 mph 73% 0 in
11:44 78.3 °F 68.2 °F 29.9 in SSO 2.4 mph 6 mph 71.5% 0 in
11:49 78.6 °F 68.4 °F 29.9 in SO 2.4 mph 6.2 mph 70.7% 0 in
11:54 79 °F 68 °F 29.9 in Oeste 2.4 mph 6 mph 69.1% 0 in
11:59 79 °F 67.8 °F 29.9 in Oeste 2.8 mph 6.9 mph 69% 0 in
12:04 78.6 °F 67.6 °F 29.9 in Oeste 4 mph 7 mph 69.1% 0 in
12:09 79 °F 68 °F 29.9 in SSO 4 mph 8.1 mph 69.3% 0 in
12:14 79.2 °F 68 °F 29.9 in SO 4 mph 8 mph 68.7% 0 in
12:19 79.3 °F 68.2 °F 29.9 in NO 3.8 mph 5.4 mph 68.3% 0 in
12:24 79.9 °F 68.2 °F 29.9 in NNO 2.9 mph 5.8 mph 67.6% 0 in
12:29 80.1 °F 68.2 °F 29.9 in NNO 2.9 mph 6 mph 67% 0 in
12:34 80.6 °F 68.2 °F 29.9 in ENE 2.9 mph 6.2 mph 66.2% 0 in
12:39 81 °F 68 °F 29.9 in SSE 3 mph 7.4 mph 65.1% 0 in
12:44 81 °F 67.8 °F 29.9 in SO 3.6 mph 8.5 mph 64.6% 0 in
12:49 81 °F 67.6 °F 29.9 in OSO 3.7 mph 9 mph 64% 0 in
12:54 80.6 °F 67.6 °F 29.9 in Sur 4.3 mph 7 mph 65.1% 0 in
12:59 80.4 °F 67.6 °F 29.9 in Sur 4.2 mph 6.9 mph 64.9% 0 in
13:04 80.4 °F 67.6 °F 29.9 in Sur 3.6 mph 7 mph 65% 0 in
13:09 80.6 °F 67.6 °F 29.9 in OSO 3.5 mph 6 mph 64.7% 0 in
13:14 81 °F 67.1 °F 29.9 in SSE 3.1 mph 9.7 mph 63% 0 in
13:19 81.1 °F 67.1 °F 29.9 in Sur 3.4 mph 10 mph 62.5% 0 in
13:24 81 °F 66.9 °F 29.9 in Oeste 4.7 mph 7 mph 62.4% 0 in
13:29 81.1 °F 67.1 °F 29.9 in SSO 4.5 mph 8.5 mph 62.2% 0 in
13:34 81.3 °F 67.1 °F 29.9 in Oeste 3.6 mph 9 mph 62% 0 in
13:39 81.3 °F 67.1 °F 29.9 in Oeste 3.4 mph 6.2 mph 62% 0 in
13:44 81.7 °F 67.3 °F 29.9 in SE 2.4 mph 9.2 mph 61.8% 0 in
13:49 81.9 °F 66.9 °F 29.9 in SE 2.8 mph 10 mph 61% 0 in
13:54 81.5 °F 67.3 °F 29.9 in SE 4.7 mph 10.4 mph 62% 0 in
13:59 81.3 °F 67.1 °F 29.9 in SE 4.8 mph 9.2 mph 62% 0 in
14:04 81.3 °F 67.1 °F 29.9 in SSE 5.4 mph 9 mph 62.2% 0 in
14:09 81.3 °F 67.1 °F 29.9 in Sur 5.3 mph 8.1 mph 61.8% 0 in
14:14 81.5 °F 67.1 °F 29.9 in SSE 5.2 mph 8.1 mph 62% 0 in
14:19 81.3 °F 67.1 °F 29.9 in SSE 5.1 mph 8.1 mph 62% 0 in
14:24 81.3 °F 67.1 °F 29.9 in SSO 4.7 mph 8 mph 62% 0 in
14:29 81.5 °F 67.3 °F 29.9 in SSE 4.6 mph 7.4 mph 62.1% 0 in
14:34 81.7 °F 67.3 °F 29.9 in SE 4 mph 8.1 mph 61.8% 0 in
14:39 81.9 °F 67.5 °F 29.9 in SE 4.2 mph 8.1 mph 61.9% 0 in
14:44 81.9 °F 67.5 °F 29.9 in SE 4.7 mph 7 mph 61.8% 0 in
14:49 81.9 °F 67.6 °F 29.9 in SE 4.7 mph 9.2 mph 62% 0 in
14:54 81.9 °F 67.5 °F 29.9 in SE 4.7 mph 10.4 mph 61.7% 0 in
14:59 81.7 °F 66.9 °F 29.9 in SSE 4.8 mph 10.4 mph 61% 0 in
15:04 81.7 °F 66.9 °F 29.9 in Sur 5.4 mph 10 mph 61% 0 in
15:09 81.7 °F 66.9 °F 29.9 in Sur 5.4 mph 9 mph 61% 0 in
15:14 81.9 °F 66.9 °F 29.9 in SSE 5.4 mph 8.5 mph 60.7% 0 in
15:19 81.9 °F 67.1 °F 29.9 in SSE 5.3 mph 9 mph 60.8% 0 in
15:24 82 °F 66.7 °F 29.8 in Sur 5.2 mph 9.2 mph 60% 0 in
15:29 82 °F 66.7 °F 29.8 in Sur 5.2 mph 9 mph 60% 0 in
15:34 82 °F 66.7 °F 29.8 in SSO 5.4 mph 8 mph 59.9% 0 in
15:39 82 °F 67.1 °F 29.8 in Sur 5.1 mph 7.4 mph 60.4% 0 in
15:44 82 °F 66.7 °F 29.8 in SSE 3.6 mph 8.5 mph 59.8% 0 in
15:49 82 °F 66.7 °F 29.8 in Sur 3.7 mph 9 mph 60% 0 in
15:54 82 °F 66.7 °F 29.8 in SE 4.3 mph 7 mph 60% 0 in
15:59 82.2 °F 66.9 °F 29.8 in SE 4 mph 8.1 mph 60.1% 0 in
16:04 82.2 °F 66.9 °F 29.8 in SE 3.1 mph 9.7 mph 60% 0 in
16:09 82.2 °F 66.9 °F 29.8 in Sur 3.5 mph 10 mph 60.2% 0 in
16:14 82 °F 67.1 °F 29.8 in SSE 5.4 mph 8.1 mph 60.4% 0 in
16:19 82 °F 66.7 °F 29.8 in Sur 5.5 mph 10.4 mph 60% 0 in
16:24 82 °F 66.7 °F 29.8 in Sur 5.9 mph 10.7 mph 60% 0 in
16:29 82 °F 66.7 °F 29.8 in Sur 5.8 mph 11 mph 59.9% 0 in
16:34 82 °F 66.4 °F 29.8 in SO 5.2 mph 7.4 mph 59% 0 in
16:39 82 °F 66.4 °F 29.8 in Sur 4.8 mph 7 mph 59% 0 in
16:44 82.2 °F 66.6 °F 29.8 in Sur 3.6 mph 8.1 mph 59% 0 in
16:49 82 °F 66.4 °F 29.8 in SSE 3.7 mph 8.1 mph 59% 0 in
16:54 82 °F 66.6 °F 29.8 in Sur 4.3 mph 8 mph 59.4% 0 in
16:59 82 °F 66.9 °F 29.8 in Sur 4.3 mph 10.4 mph 60% 0 in
17:04 82 °F 66.7 °F 29.8 in Sur 4.3 mph 10.4 mph 60% 0 in
17:09 82.2 °F 66.9 °F 29.8 in SE 4.5 mph 10 mph 60% 0 in
17:14 82.2 °F 66.9 °F 29.8 in Sur 5.2 mph 7.4 mph 59.8% 0 in
17:19 82.4 °F 67.1 °F 29.8 in Sur 5 mph 9.7 mph 60% 0 in
17:24 82.6 °F 66.9 °F 29.8 in SSE 4.3 mph 10 mph 59.1% 0 in
17:29 82.4 °F 66.6 °F 29.8 in SSE 4.7 mph 9 mph 58.9% 0 in
17:34 82.4 °F 66.4 °F 29.8 in Sur 5.9 mph 9.2 mph 58.7% 0 in
17:39 82.4 °F 66.6 °F 29.8 in Sur 5.8 mph 9 mph 59% 0 in
17:44 82.4 °F 66 °F 29.8 in Sur 5.2 mph 10.4 mph 57.6% 0 in
17:49 82.4 °F 65.5 °F 29.8 in SSE 5.3 mph 10.4 mph 56.7% 0 in
17:54 82.4 °F 65.1 °F 29.8 in SSE 5.9 mph 10.7 mph 56% 0 in
17:59 82.6 °F 65.5 °F 29.8 in SSE 6 mph 11.8 mph 56.5% 0 in
18:04 82.4 °F 66.2 °F 29.8 in Sur 6.4 mph 13.5 mph 58.3% 0 in
18:09 82 °F 66.4 °F 29.8 in Sur 6.6 mph 13 mph 59% 0 in
18:14 82 °F 66.4 °F 29.8 in Sur 7.6 mph 12 mph 59.3% 0 in
18:19 81.9 °F 66.6 °F 29.8 in SSE 7.3 mph 10.7 mph 59.9% 0 in
18:24 81.7 °F 66.4 °F 29.8 in SSE 6.2 mph 11 mph 60% 0 in
18:29 81.7 °F 66.4 °F 29.8 in SSE 6 mph 10 mph 60% 0 in
18:34 81.7 °F 66.6 °F 29.8 in SSE 5.2 mph 8 mph 60.2% 0 in
18:39 81.7 °F 66.4 °F 29.8 in Sur 5 mph 7.4 mph 60% 0 in
18:44 81.3 °F 66.2 °F 29.8 in SSE 4.3 mph 7.4 mph 60.1% 0 in
18:49 81.3 °F 66.6 °F 29.8 in Sur 4.5 mph 8.1 mph 60.9% 0 in
18:54 81.1 °F 66 °F 29.8 in Sur 5.2 mph 8 mph 60.1% 0 in
18:59 81.1 °F 65.8 °F 29.8 in SSE 5.1 mph 7.4 mph 60% 0 in
19:04 81 °F 65.8 °F 29.8 in SSE 4.7 mph 7.4 mph 59.9% 0 in
19:09 81 °F 65.8 °F 29.8 in SSE 4.8 mph 9.2 mph 60% 0 in
19:14 80.8 °F 65.7 °F 29.8 in Sur 5.2 mph 9 mph 60% 0 in
19:19 80.8 °F 65.7 °F 29.8 in Sur 5.1 mph 8.1 mph 60% 0 in
19:24 80.6 °F 65.7 °F 29.8 in Sur 4.7 mph 8.1 mph 60.3% 0 in
19:29 80.4 °F 65.7 °F 29.8 in Sur 4.8 mph 7.4 mph 61% 0 in
19:34 80.4 °F 65.7 °F 29.8 in Sur 5.2 mph 9.7 mph 61% 0 in
19:39 80.2 °F 66 °F 29.8 in Sur 5.2 mph 10 mph 61.8% 0 in
19:44 80.2 °F 66 °F 29.8 in Sur 5.2 mph 10.4 mph 62% 0 in
19:49 80.2 °F 66.2 °F 29.8 in Sur 5.2 mph 10 mph 62.3% 0 in
19:54 80.1 °F 66.4 °F 29.8 in Sur 5.4 mph 10 mph 63% 0 in
19:59 80.1 °F 66.2 °F 29.8 in SSO 5.3 mph 8.1 mph 63% 0 in
20:04 79.9 °F 66 °F 29.8 in SSO 5.2 mph 10 mph 62.7% 0 in
20:09 79.9 °F 65.8 °F 29.8 in SSO 5.3 mph 10 mph 62.3% 0 in
20:14 79.9 °F 66 °F 29.8 in Sur 5.9 mph 9.2 mph 62.7% 0 in
20:19 79.7 °F 65.7 °F 29.8 in SSE 5.8 mph 9.2 mph 62.2% 0 in
20:24 79.5 °F 65.7 °F 29.8 in Este 5.4 mph 9.2 mph 62.6% 0 in
20:29 79.3 °F 66.2 °F 29.8 in NE 5.5 mph 11.8 mph 64.2% 0 in
20:34 78.6 °F 66.7 °F 29.8 in ENE 5.9 mph 13 mph 66.9% 0 in
20:39 78.3 °F 66.9 °F 29.8 in SSE 6 mph 13 mph 68.1% 0 in
20:44 78.1 °F 66.9 °F 29.8 in SO 6.2 mph 9.7 mph 68.5% 0 in
20:49 78.1 °F 66.7 °F 29.8 in OSO 6 mph 10 mph 68% 0 in
20:54 78.1 °F 66.2 °F 29.8 in OSO 5.2 mph 9 mph 67% 0 in
20:59 78.3 °F 66.4 °F 29.8 in SSE 4.8 mph 9.2 mph 66.8% 0 in
21:04 78.4 °F 66 °F 29.8 in SSO 3.6 mph 9.7 mph 66% 0 in
21:09 78.4 °F 66 °F 29.8 in SO 3.8 mph 10 mph 66% 0 in
21:14 78.4 °F 66.2 °F 29.8 in SO 4.3 mph 5.9 mph 66.3% 0 in
21:19 78.4 °F 66.6 °F 29.8 in SO 4 mph 6 mph 67% 0 in
21:24 78.4 °F 66.6 °F 29.8 in SO 2.9 mph 5 mph 67% 0 in
21:29 78.4 °F 66.6 °F 29.8 in SO 2.7 mph 5 mph 67% 0 in
21:34 78.3 °F 66.4 °F 29.9 in SO 1.8 mph 3.6 mph 67% 0 in
21:39 78.3 °F 66.6 °F 29.9 in SE 1.8 mph 4.6 mph 67.2% 0 in
21:44 78.3 °F 66.7 °F 29.9 in Este 1.8 mph 5 mph 68% 0 in
21:49 78.3 °F 66.7 °F 29.9 in ENE 1.8 mph 4.6 mph 68% 0 in
21:54 77.9 °F 66.6 °F 29.8 in NE 1.8 mph 5.8 mph 68% 0 in
21:59 77.7 °F 66.4 °F 29.8 in NNE 2.1 mph 6 mph 68% 0 in
22:04 77.7 °F 66.4 °F 29.9 in NE 3.1 mph 5 mph 68.1% 0 in
22:09 77.7 °F 66.7 °F 29.9 in NE 2.9 mph 4 mph 69% 0 in
22:14 77.7 °F 66.7 °F 29.9 in NE 1.8 mph 3 mph 69% 0 in
22:19 77.5 °F 66.6 °F 29.9 in NE 1.7 mph 3.5 mph 69% 0 in
22:24 77.5 °F 66.7 °F 29.9 in ENE 1.4 mph 4.6 mph 69.3% 0 in
22:29 77.5 °F 66.9 °F 29.9 in ESE 1.5 mph 5 mph 70% 0 in
22:34 77.4 °F 66.7 °F 29.9 in ESE 2 mph 3 mph 70% 0 in
22:39 77.4 °F 66.7 °F 29.9 in ESE 1.6 mph 4 mph 70% 0 in
22:44 77.4 °F 66.9 °F 29.9 in Calm   5 mph 70.6% 0 in
22:49 77.2 °F 66.9 °F 29.9 in ESE 0.5 mph 5 mph 71% 0 in
22:54 77.2 °F 67.1 °F 29.9 in ESE 2.4 mph 4 mph 71.3% 0 in
22:59 77 °F 67.3 °F 29.9 in ESE 2.2 mph 5 mph 71.9% 0 in
23:04 76.8 °F 67.3 °F 29.9 in ESE 1.8 mph 5 mph 72.6% 0 in
23:09 76.8 °F 67.8 °F 29.9 in NO 1.9 mph 5 mph 73.7% 0 in
23:14 76.6 °F 68 °F 29.9 in NNO 2 mph 5 mph 74.8% 0 in
23:19 76.5 °F 68.2 °F 29.9 in NNO 2.1 mph 5 mph 75.6% 0 in
23:24 76.3 °F 68 °F 29.9 in North 2.4 mph 5 mph 75.7% 0 in
23:29 76.1 °F 67.5 °F 29.9 in North 2 mph 3 mph 75% 0 in
23:34 75.9 °F 67.5 °F 29.9 in Calm     75% 0 in
23:39 75.9 °F 67.3 °F 29.9 in Calm   1.8 mph 74.7% 0 in
23:44 76.1 °F 67.5 °F 29.9 in Calm   5.8 mph 75% 0 in
23:49 76.1 °F 67.6 °F 29.9 in NO 0.5 mph 6 mph 75% 0 in
23:54 76.1 °F 67.6 °F 29.9 in NO 2.4 mph 5 mph 75.1% 0 in
23:59 75.9 °F 67.5 °F 29.9 in OSO 2.3 mph 4.6 mph 75.1% 0 in
Murcia-Puente Tocinos, España
Compliments of Weather Underground - 2.75 mb

La estación de MeteoMurcia.com, publica sus datos en los siguientes proyectos:

Weather Underground PWS IMURCIAP2 Meteoclimatic www.awekas.at

W3Counter
Web Analytics